Time;durP1;ratioP1;P1;durP2;ratioP2;P2;SDS_P1;SDS_P2;PMS_P1;PMS_P2;Temp;Humidity;BMP_temperature;BMP_pressure;BME280_temperature;BME280_humidity;BME280_pressure;Samples;Min_cycle;Max_cycle;Signal;HPM_P1;HPM_P2
2024/01/22 00:01:54;;;;;;;9.55;6.35;;;;;;;4.79;100.00;100604.44;5025531;28;20071;-81
2024/01/22 00:04:21;;;;;;;10.13;5.47;;;;;;;4.80;100.00;100574.19;5029218;28;20037;-82
2024/01/22 00:06:52;;;;;;;8.90;5.97;;;;;;;4.83;100.00;100558.66;5027278;28;20057;-82
2024/01/22 00:09:19;;;;;;;9.55;5.72;;;;;;;4.85;100.00;100572.53;5059935;28;20057;-82
2024/01/22 00:11:49;;;;;;;9.18;5.20;;;;;;;4.88;100.00;100584.69;5060050;28;20503;-82
2024/01/22 00:14:18;;;;;;;9.85;6.05;;;;;;;4.95;100.00;100602.94;5029868;28;20126;-81
2024/01/22 00:16:50;;;;;;;12.50;6.03;;;;;;;4.96;100.00;100576.13;5050315;28;20054;-82
2024/01/22 00:19:19;;;;;;;10.35;6.05;;;;;;;5.02;100.00;100564.09;5021300;28;20053;-80
2024/01/22 00:21:49;;;;;;;13.48;6.13;;;;;;;5.01;100.00;100547.66;5023160;28;20420;-81
2024/01/22 00:24:19;;;;;;;10.25;6.45;;;;;;;5.07;100.00;100550.34;5026838;28;20051;-81
2024/01/22 00:26:48;;;;;;;6.60;4.68;;;;;;;5.09;100.00;100535.63;5043485;28;20401;-80
2024/01/22 00:29:15;;;;;;;10.05;5.50;;;;;;;5.05;100.00;100535.59;5040109;28;20080;-82
2024/01/22 00:31:41;;;;;;;9.50;5.35;;;;;;;5.08;100.00;100533.03;5024602;28;20047;-80
2024/01/22 00:34:08;;;;;;;6.15;4.63;;;;;;;5.09;100.00;100517.47;5040473;28;20051;-81
2024/01/22 00:36:34;;;;;;;11.65;6.47;;;;;;;5.11;100.00;100517.47;5024368;28;20041;-82
2024/01/22 00:39:01;;;;;;;12.15;6.22;;;;;;;5.07;100.00;100497.53;5041906;28;20045;-82
2024/01/22 00:41:28;;;;;;;13.35;6.18;;;;;;;5.09;100.00;100449.16;5023896;28;20061;-82
2024/01/22 00:43:55;;;;;;;7.88;4.82;;;;;;;5.08;100.00;100439.63;5051061;28;20041;-81
2024/01/22 00:46:24;;;;;;;8.57;5.00;;;;;;;5.04;100.00;100419.69;5007539;28;20044;-81
2024/01/22 00:48:51;;;;;;;13.48;5.85;;;;;;;5.09;100.00;100429.25;5025044;28;21857;-81
2024/01/22 00:51:18;;;;;;;8.80;5.32;;;;;;;5.09;100.00;100429.25;5025132;28;20037;-80
2024/01/22 00:53:46;;;;;;;15.10;6.45;;;;;;;5.16;100.00;100418.94;5015522;28;20516;-80
2024/01/22 00:56:15;;;;;;;10.52;5.80;;;;;;;5.14;100.00;100391.25;5053973;28;20041;-81
2024/01/22 00:58:44;;;;;;;8.93;4.80;;;;;;;5.21;100.00;100378.34;5039873;28;20154;-80
2024/01/22 01:01:11;;;;;;;8.75;4.70;;;;;;;5.21;100.00;100367.94;5041168;28;20409;-81
2024/01/22 01:03:37;;;;;;;9.15;5.70;;;;;;;5.17;100.00;100361.00;5029236;28;20045;-82
2024/01/22 01:06:04;;;;;;;8.02;4.78;;;;;;;5.17;100.00;100333.31;5009800;28;20140;-81
2024/01/22 01:08:34;;;;;;;5.85;4.90;;;;;;;5.19;100.00;100297.00;5041483;28;20053;-81
2024/01/22 01:11:03;;;;;;;5.35;4.75;;;;;;;5.25;100.00;100305.72;5039825;28;20053;-82
2024/01/22 01:13:32;;;;;;;10.18;5.82;;;;;;;5.17;100.00;100353.22;5010600;28;20748;-82
2024/01/22 01:16:01;;;;;;;6.15;4.75;;;;;;;5.22;100.00;100351.53;5039869;28;20056;-80
2024/01/22 01:18:32;;;;;;;7.35;5.55;;;;;;;5.20;100.00;100322.97;5024118;28;20044;-81
2024/01/22 01:21:00;;;;;;;7.70;5.00;;;;;;;5.12;100.00;100315.13;5016328;28;20365;-80
2024/01/22 01:23:28;;;;;;;10.35;5.78;;;;;;;5.14;100.00;100294.38;5025558;28;20437;-80
2024/01/22 01:25:55;;;;;;;10.13;4.63;;;;;;;5.19;100.00;100321.25;5017234;28;20403;-81
2024/01/22 01:28:22;;;;;;;8.57;4.47;;;;;;;5.24;100.00;100311.75;5033070;28;20053;-80
2024/01/22 01:30:50;;;;;;;6.13;5.00;;;;;;;5.25;100.00;100300.53;5027505;28;20547;-80
2024/01/22 01:33:19;;;;;;;6.93;4.53;;;;;;;5.25;100.00;100300.53;5044004;28;20136;-80
2024/01/22 01:35:48;;;;;;;10.63;5.57;;;;;;;5.24;100.00;100267.66;5033693;28;20045;-81
2024/01/22 01:38:15;;;;;;;10.20;5.03;;;;;;;5.30;100.00;100296.22;5048519;28;20101;-82
2024/01/22 01:40:44;;;;;;;8.30;5.15;;;;;;;5.29;100.00;100301.41;5024826;28;20813;-80
2024/01/22 01:43:10;;;;;;;7.32;4.40;;;;;;;5.33;100.00;100255.56;5025984;28;20811;-81
2024/01/22 01:45:40;;;;;;;7.97;4.15;;;;;;;5.26;100.00;100213.16;5041678;28;20041;-80
2024/01/22 01:48:06;;;;;;;8.25;4.82;;;;;;;5.29;100.00;100190.69;5013680;28;20057;-81
2024/01/22 01:50:33;;;;;;;9.93;4.30;;;;;;;5.36;100.00;100240.00;5049136;28;20063;-80
2024/01/22 01:53:01;;;;;;;10.23;4.93;;;;;;;5.32;100.00;100249.53;5025780;28;20072;-81
2024/01/22 01:55:29;;;;;;;9.10;4.53;;;;;;;5.34;100.00;100219.25;5021309;28;20092;-83
2024/01/22 01:57:56;;;;;;;7.15;4.45;;;;;;;5.39;100.00;100224.47;5046142;28;20048;-81
2024/01/22 02:00:23;;;;;;;10.10;4.93;;;;;;;5.45;100.00;100229.69;5026674;28;20053;-80
2024/01/22 02:02:50;;;;;;;5.75;3.95;;;;;;;5.42;100.00;100178.63;5041066;28;20569;-81
2024/01/22 02:05:20;;;;;;;6.45;3.17;;;;;;;5.38;100.00;100163.03;5059448;28;20060;-82
2024/01/22 02:07:47;;;;;;;5.25;3.80;;;;;;;5.47;100.00;100228.84;5025910;28;20055;-80
2024/01/22 02:10:14;;;;;;;9.13;4.00;;;;;;;5.54;100.00;100218.47;5056443;28;20064;-83
2024/01/22 02:12:44;;;;;;;11.93;4.85;;;;;;;5.54;100.00;100201.19;5046879;28;20049;-81
2024/01/22 02:15:13;;;;;;;5.85;4.10;;;;;;;5.59;100.00;100170.03;5024674;28;20327;-81
2024/01/22 02:17:43;;;;;;;7.05;3.90;;;;;;;5.58;100.00;100176.97;5059702;28;20045;-81
2024/01/22 02:20:10;;;;;;;4.38;3.75;;;;;;;5.64;100.00;100194.28;5024223;28;20981;-81
2024/01/22 02:22:36;;;;;;;5.57;3.25;;;;;;;5.65;100.00;100169.19;5029339;28;20045;-81
2024/01/22 02:25:09;;;;;;;4.55;2.95;;;;;;;5.63;100.00;100167.47;5054128;28;20059;-81
2024/01/22 02:27:38;;;;;;;8.70;3.92;;;;;;;5.65;100.00;100145.84;5058077;28;20044;-82
2024/01/22 02:30:06;;;;;;;7.22;3.13;;;;;;;5.69;100.00;100127.66;5028906;28;20515;-81
2024/01/22 02:32:32;;;;;;;6.90;3.30;;;;;;;5.74;100.00;100132.88;5048461;28;20045;-82
2024/01/22 02:34:59;;;;;;;3.83;3.33;;;;;;;5.77;100.00;100125.94;5044855;28;20496;-82
2024/01/22 02:37:25;;;;;;;4.53;2.72;;;;;;;5.74;100.00;100117.28;5028295;28;20562;-81
2024/01/22 02:39:52;;;;;;;9.18;3.90;;;;;;;5.79;100.00;100113.81;5029680;28;20095;-81
2024/01/22 02:42:19;;;;;;;4.35;3.20;;;;;;;5.82;100.00;100119.91;5043451;28;20048;-82
2024/01/22 02:44:45;;;;;;;4.80;3.38;;;;;;;5.80;100.00;100136.34;5043858;28;20044;-81
2024/01/22 02:47:12;;;;;;;7.63;4.03;;;;;;;5.86;100.00;100109.50;5029285;28;20047;-81
2024/01/22 02:49:39;;;;;;;7.95;3.95;;;;;;;5.83;100.00;100129.41;5025112;28;20523;-80
2024/01/22 02:52:05;;;;;;;6.00;3.22;;;;;;;5.92;100.00;100121.66;5042225;28;20041;-80
2024/01/22 02:54:38;;;;;;;6.85;3.95;;;;;;;5.96;100.00;100121.66;5028968;28;20037;-81
2024/01/22 02:57:05;;;;;;;9.48;3.05;;;;;;;5.96;100.00;100105.19;5052228;28;20412;-81
2024/01/22 02:59:36;;;;;;;6.63;2.72;;;;;;;6.07;100.00;100137.28;5028781;28;20045;-81
2024/01/22 03:02:03;;;;;;;3.63;2.75;;;;;;;6.09;100.00;100129.50;5026873;28;20140;-81
2024/01/22 03:04:31;;;;;;;3.33;2.22;;;;;;;6.10;100.00;100131.22;5042071;28;20044;-80
2024/01/22 03:06:58;;;;;;;6.20;3.58;;;;;;;6.08;100.00;100126.03;5040087;28;20060;-81
2024/01/22 03:09:26;;;;;;;7.10;3.08;;;;;;;6.08;100.00;100110.44;5058851;28;20095;-82
2024/01/22 03:11:53;;;;;;;4.10;3.00;;;;;;;6.08;100.00;100120.81;5023360;28;20067;-82
2024/01/22 03:14:19;;;;;;;3.53;3.00;;;;;;;6.07;100.00;100105.22;5043110;28;20046;-81
2024/01/22 03:16:46;;;;;;;3.63;2.72;;;;;;;6.13;100.00;100058.47;5045038;28;20091;-81
2024/01/22 03:19:13;;;;;;;4.68;2.30;;;;;;;6.22;100.00;100080.97;5008484;28;20044;-80
2024/01/22 03:21:39;;;;;;;2.72;2.50;;;;;;;6.25;100.00;100096.56;5026861;28;20118;-81
2024/01/22 03:24:06;;;;;;;6.32;3.45;;;;;;;6.24;100.00;100090.50;5028755;28;20532;-81
2024/01/22 03:26:33;;;;;;;6.95;1.95;;;;;;;6.35;100.00;100067.13;5045448;28;20056;-81
2024/01/22 03:29:01;;;;;;;7.03;3.47;;;;;;;6.48;100.00;100075.78;5014056;28;20045;-81
2024/01/22 03:31:32;;;;;;;3.38;2.13;;;;;;;6.50;100.00;100066.22;5027585;28;20118;-81
2024/01/22 03:33:59;;;;;;;6.18;2.28;;;;;;;6.53;100.00;100049.75;5056959;28;20045;-80
2024/01/22 03:36:26;;;;;;;2.20;1.75;;;;;;;6.63;100.00;100056.66;5038251;28;20137;-81
2024/01/22 03:38:52;;;;;;;3.58;1.65;;;;;;;6.73;100.00;100083.53;5048536;28;20055;-80
2024/01/22 03:41:19;;;;;;;4.30;2.67;;;;;;;6.88;100.00;100078.28;5024959;28;20191;-80
2024/01/22 03:43:46;;;;;;;7.78;2.50;;;;;;;6.90;100.00;100058.31;4992103;28;20045;-80
2024/01/22 03:46:15;;;;;;;3.38;2.15;;;;;;;6.96;100.00;100044.41;5048309;28;20109;-81
2024/01/22 03:48:42;;;;;;;4.60;2.10;;;;;;;7.06;100.00;100058.25;5028355;28;20566;-82
2024/01/22 03:51:08;;;;;;;1.65;1.52;;;;;;;7.07;100.00;100057.38;5040742;28;20573;-80
2024/01/22 03:53:35;;;;;;;9.13;2.53;;;;;;;7.06;100.00;100048.69;5025989;28;20132;-81
2024/01/22 03:56:08;;;;;;;4.43;1.88;;;;;;;7.09;100.00;100058.22;5036264;28;20040;-82
2024/01/22 03:58:39;;;;;;;3.85;2.25;;;;;;;7.15;100.00;100047.81;5027570;28;20492;-81
2024/01/22 04:01:07;;;;;;;2.30;1.30;;;;;;;7.12;100.00;100053.03;5023979;28;20110;-81
2024/01/22 04:03:36;;;;;;;6.97;2.10;;;;;;;7.16;100.00;100064.28;5038507;28;20041;-82
2024/01/22 04:06:03;;;;;;;4.82;2.30;;;;;;;7.22;100.00;100072.06;5025287;28;20118;-81
2024/01/22 04:08:30;;;;;;;4.15;1.70;;;;;;;7.24;100.00;100052.97;5055356;28;20037;-81
2024/01/22 04:10:56;;;;;;;6.25;1.92;;;;;;;7.26;100.00;100025.19;5008945;28;20067;-81
2024/01/22 04:13:23;;;;;;;5.13;1.55;;;;;;;7.23;100.00;100030.41;5040334;28;20478;-81
2024/01/22 04:15:52;;;;;;;4.55;1.75;;;;;;;7.21;100.00;100013.94;5034691;28;20049;-81
2024/01/22 04:18:19;;;;;;;2.35;1.80;;;;;;;7.23;100.00;100006.97;5028043;28;20032;-81
2024/01/22 04:20:48;;;;;;;4.90;1.20;;;;;;;7.23;100.00;100000.91;5022101;28;20145;-82
2024/01/22 04:23:15;;;;;;;3.28;1.65;;;;;;;7.22;100.00;99996.56;5033725;28;20052;-82
2024/01/22 04:25:42;;;;;;;1.90;1.63;;;;;;;7.33;100.00;100014.75;5006126;28;20103;-80
2024/01/22 04:28:08;;;;;;;2.58;1.92;;;;;;;7.32;100.00;100000.00;5018429;28;20052;-81
2024/01/22 04:30:35;;;;;;;2.00;1.73;;;;;;;7.31;100.00;99991.31;5022150;28;20041;-80
2024/01/22 04:33:01;;;;;;;5.15;2.40;;;;;;;7.38;100.00;99985.19;5020562;28;20144;-81
2024/01/22 04:35:28;;;;;;;1.50;1.33;;;;;;;7.39;100.00;99976.50;5023996;28;20087;-81
2024/01/22 04:37:57;;;;;;;3.70;1.45;;;;;;;7.39;100.00;99976.50;5022160;28;20064;-79
2024/01/22 04:40:24;;;;;;;2.33;1.25;;;;;;;7.43;100.00;99969.53;5024247;28;20045;-80
2024/01/22 04:42:54;;;;;;;2.35;1.27;;;;;;;7.42;100.00;99968.66;5022020;28;22039;-79
2024/01/22 04:45:23;;;;;;;2.50;1.55;;;;;;;7.43;100.00;99961.72;5037046;28;20461;-80
2024/01/22 04:47:50;;;;;;;6.35;1.83;;;;;;;7.38;100.00;99951.34;5010560;28;20055;-81
2024/01/22 04:50:24;;;;;;;2.88;1.65;;;;;;;7.35;100.00;99964.38;5037282;28;20041;-81
2024/01/22 04:52:50;;;;;;;3.90;1.65;;;;;;;7.38;100.00;99953.06;5035387;28;20053;-81
2024/01/22 04:55:19;;;;;;;3.08;1.55;;;;;;;7.41;100.00;99956.53;5052928;28;20041;-81
2024/01/22 04:57:45;;;;;;;2.15;1.85;;;;;;;7.37;100.00;99949.59;5022882;28;20110;-81
2024/01/22 05:00:13;;;;;;;1.67;1.10;;;;;;;7.35;100.00;99940.06;5053758;28;20049;-82
2024/01/22 05:02:40;;;;;;;2.47;1.40;;;;;;;7.31;100.00;99938.38;5028246;28;20131;-79
2024/01/22 05:05:08;;;;;;;2.60;1.40;;;;;;;7.35;100.00;99951.34;5031057;28;20116;-81
2024/01/22 05:07:34;;;;;;;3.00;1.75;;;;;;;7.35;100.00;99933.13;5019152;28;20072;-82
2024/01/22 05:10:09;;;;;;;2.17;1.30;;;;;;;7.32;100.00;99930.56;5032410;28;20042;-81
2024/01/22 05:12:36;;;;;;;5.60;1.88;;;;;;;7.33;100.00;99924.47;5033492;28;20425;-81
2024/01/22 05:15:06;;;;;;;2.00;1.60;;;;;;;7.37;100.00;99928.78;5058843;28;20037;-82
2024/01/22 05:17:33;;;;;;;1.42;1.33;;;;;;;7.33;100.00;99940.09;5021160;28;20069;-81
2024/01/22 05:20:03;;;;;;;1.50;1.50;;;;;;;7.32;100.00;99927.94;5028469;28;21536;-79
2024/01/22 05:22:33;;;;;;;4.32;1.73;;;;;;;7.34;100.00;99914.91;5027633;28;20125;-81
2024/01/22 05:25:00;;;;;;;4.32;1.45;;;;;;;7.37;100.00;99905.34;5029846;28;20045;-81
2024/01/22 05:27:32;;;;;;;1.33;1.20;;;;;;;7.31;100.00;99896.72;5056025;28;20048;-80
2024/01/22 05:29:59;;;;;;;1.70;1.50;;;;;;;7.25;100.00;99898.50;5031657;28;20053;-81
2024/01/22 05:32:25;;;;;;;2.95;1.17;;;;;;;7.18;100.00;99894.19;5041375;28;20127;-81
2024/01/22 05:34:55;;;;;;;7.00;1.63;;;;;;;7.12;100.00;99895.13;5058999;28;20102;-80
2024/01/22 05:37:22;;;;;;;2.78;1.40;;;;;;;7.02;100.00;99883.03;5039744;28;20045;-82
2024/01/22 05:39:48;;;;;;;1.38;1.27;;;;;;;6.94;100.00;99870.06;5041883;28;20099;-81
2024/01/22 05:42:15;;;;;;;3.53;1.58;;;;;;;6.83;100.00;99871.03;5029588;28;20036;-82
2024/01/22 05:44:42;;;;;;;2.63;1.33;;;;;;;6.68;100.00;99872.00;5027539;28;20056;-80
2024/01/22 05:47:08;;;;;;;5.57;1.70;;;;;;;6.62;100.00;99860.75;5043916;28;20073;-82
2024/01/22 05:49:35;;;;;;;2.58;1.92;;;;;;;6.52;100.00;99856.47;5030220;28;20052;-82
2024/01/22 05:52:04;;;;;;;3.13;1.58;;;;;;;6.42;100.00;99870.38;5026661;28;20378;-80
2024/01/22 05:54:46;;;;;;;4.45;2.97;;;;;;;6.43;100.00;99854.78;5042263;28;20388;-81
2024/01/22 05:57:13;;;;;;;6.97;1.50;;;;;;;6.38;100.00;99850.47;5029735;28;20130;-81
2024/01/22 05:59:44;;;;;;;2.35;1.50;;;;;;;6.33;100.00;99847.88;5026776;28;20063;-81
2024/01/22 06:02:15;;;;;;;5.32;1.60;;;;;;;6.37;100.00;99852.19;5042647;28;20041;-80
2024/01/22 06:04:42;;;;;;;2.67;1.83;;;;;;;6.40;100.00;99848.72;5028143;28;20049;-82
2024/01/22 06:07:09;;;;;;;5.05;1.80;;;;;;;6.44;100.00;99842.63;5039830;28;20037;-82
2024/01/22 06:09:39;;;;;;;3.55;2.40;;;;;;;6.48;100.00;99828.75;4997097;28;20456;-80
2024/01/22 06:12:08;;;;;;;3.83;1.38;;;;;;;6.50;100.00;99834.78;5011954;28;20038;-82
2024/01/22 06:14:36;;;;;;;3.35;1.88;;;;;;;6.56;100.00;99836.53;5060150;28;20045;-81
2024/01/22 06:17:05;;;;;;;2.75;1.27;;;;;;;6.62;100.00;99826.06;5043429;28;20069;-81
2024/01/22 06:19:34;;;;;;;2.78;1.27;;;;;;;6.86;100.00;99819.84;5044055;28;20073;-82
2024/01/22 06:22:00;;;;;;;1.55;1.25;;;;;;;6.96;100.00;99818.03;5045484;28;20064;-81
2024/01/22 06:24:27;;;;;;;3.92;1.80;;;;;;;7.01;100.00;99813.66;5035465;28;20037;-81
2024/01/22 06:26:54;;;;;;;2.28;1.38;;;;;;;7.05;100.00;99810.16;5034968;28;20049;-82
2024/01/22 06:29:23;;;;;;;1.10;1.10;;;;;;;7.04;100.00;99797.16;5025138;28;20060;-79
2024/01/22 06:31:50;;;;;;;1.45;1.20;;;;;;;7.06;100.00;99821.44;5040908;28;20135;-81
2024/01/22 06:34:18;;;;;;;1.15;1.15;;;;;;;7.03;100.00;99806.69;5027918;28;20045;-82
2024/01/22 06:36:45;;;;;;;2.80;1.30;;;;;;;7.02;100.00;99804.13;5040093;28;20419;-81
2024/01/22 06:39:14;;;;;;;4.57;1.90;;;;;;;7.01;100.00;99813.66;5036380;28;20075;-82
2024/01/22 06:41:42;;;;;;;3.05;1.25;;;;;;;6.99;100.00;99801.53;5027910;28;20565;-80
2024/01/22 06:44:12;;;;;;;5.38;1.75;;;;;;;6.98;100.00;99818.03;5024870;28;20139;-81
2024/01/22 06:46:38;;;;;;;3.58;1.75;;;;;;;6.99;100.00;99809.31;5038562;28;20045;-83
2024/01/22 06:49:06;;;;;;;1.23;1.08;;;;;;;6.99;100.00;99802.41;5023854;28;20152;-81
2024/01/22 06:51:36;;;;;;;1.27;1.17;;;;;;;6.97;100.00;99814.56;5024694;28;20053;-81
2024/01/22 06:54:03;;;;;;;2.35;1.33;;;;;;;7.01;100.00;99807.59;5022997;28;20052;-80
2024/01/22 06:56:29;;;;;;;4.45;1.50;;;;;;;6.98;100.00;99805.03;5028962;28;20044;-80
2024/01/22 06:59:03;;;;;;;2.45;1.40;;;;;;;6.97;100.00;99811.94;5025262;28;20132;-81
2024/01/22 07:01:31;;;;;;;2.45;1.55;;;;;;;7.00;100.00;99811.06;5040603;28;20122;-81
2024/01/22 07:03:57;;;;;;;1.27;1.17;;;;;;;6.95;100.00;99814.56;5023519;28;20089;-82
2024/01/22 07:06:24;;;;;;;3.25;1.50;;;;;;;6.95;100.00;99826.72;5027465;28;20144;-81
2024/01/22 07:08:52;;;;;;;4.63;2.28;;;;;;;6.96;100.00;99836.22;5023221;28;20044;-82
2024/01/22 07:11:19;;;;;;;1.20;1.10;;;;;;;7.01;100.00;99828.41;5025266;28;20041;-80
2024/01/22 07:13:48;;;;;;;2.80;1.38;;;;;;;7.00;100.00;99826.69;5042615;28;20065;-81
2024/01/22 07:16:15;;;;;;;2.63;1.35;;;;;;;7.00;100.00;99834.47;5025806;28;20048;-80
2024/01/22 07:18:41;;;;;;;2.72;1.52;;;;;;;7.07;100.00;99851.78;5056109;28;20053;-82
2024/01/22 07:21:08;;;;;;;2.10;1.55;;;;;;;7.03;100.00;99834.47;5049040;28;20749;-81
2024/01/22 07:23:37;;;;;;;1.55;1.23;;;;;;;7.01;100.00;99834.47;5019300;28;20049;-83
2024/01/22 07:26:04;;;;;;;1.52;1.40;;;;;;;7.10;100.00;99823.13;5024416;28;20049;-84
2024/01/22 07:28:35;;;;;;;1.30;1.30;;;;;;;7.11;100.00;99833.53;5028665;28;20124;-82
2024/01/22 07:31:12;;;;;;;1.27;1.15;;;;;;;7.15;100.00;99842.16;5024831;28;20065;-81
2024/01/22 07:33:39;;;;;;;1.83;1.30;;;;;;;7.24;100.00;99839.50;5020809;28;20566;-79
2024/01/22 07:36:06;;;;;;;1.20;1.10;;;;;;;7.22;100.00;99838.66;5007155;28;20044;-81
2024/01/22 07:38:33;;;;;;;1.98;1.23;;;;;;;7.21;100.00;99828.22;5024974;28;20045;-81
2024/01/22 07:41:05;;;;;;;2.65;1.27;;;;;;;7.17;100.00;99821.34;5024901;28;20049;-81
2024/01/22 07:43:32;;;;;;;1.85;1.13;;;;;;;7.11;100.00;99830.91;5050917;28;20047;-82
2024/01/22 07:45:59;;;;;;;2.35;0.95;;;;;;;7.21;100.00;99815.22;5012737;28;20252;-81
2024/01/22 07:48:32;;;;;;;0.98;0.85;;;;;;;7.21;100.00;99823.03;5009287;28;20043;-81
2024/01/22 07:50:59;;;;;;;1.42;1.23;;;;;;;7.26;100.00;99829.94;5042094;28;20110;-82
2024/01/22 07:53:27;;;;;;;2.88;0.77;;;;;;;7.29;100.00;99826.44;5041751;28;20455;-81
2024/01/22 07:55:54;;;;;;;3.28;1.10;;;;;;;7.37;100.00;99823.78;5058752;28;20033;-81
2024/01/22 07:58:20;;;;;;;1.17;1.08;;;;;;;7.39;100.00;99822.00;5025133;28;20130;-82
2024/01/22 08:00:50;;;;;;;1.80;1.35;;;;;;;7.39;100.00;99819.41;5008507;28;20049;-82
2024/01/22 08:03:16;;;;;;;2.17;0.77;;;;;;;7.41;100.00;99820.25;5028838;28;20052;-81
2024/01/22 08:05:43;;;;;;;1.23;0.82;;;;;;;7.42;100.00;99807.22;5044677;28;20037;-83
2024/01/22 08:08:10;;;;;;;1.88;0.70;;;;;;;7.46;100.00;99818.47;5041287;28;20059;-83
2024/01/22 08:10:38;;;;;;;3.22;2.60;;;;;;;7.45;100.00;99820.19;5061974;28;20130;-81
2024/01/22 08:13:05;;;;;;;1.50;1.20;;;;;;;7.55;100.00;99823.59;5054449;28;20072;-82
2024/01/22 08:15:32;;;;;;;1.27;1.05;;;;;;;7.59;100.00;99825.28;5031196;28;20037;-81
2024/01/22 08:18:04;;;;;;;1.30;0.80;;;;;;;7.59;100.00;99827.88;5056076;28;20049;-81
2024/01/22 08:20:30;;;;;;;2.20;0.88;;;;;;;7.59;100.00;99833.09;5023079;28;20056;-80
2024/01/22 08:22:57;;;;;;;2.40;0.98;;;;;;;7.58;100.00;99843.53;5016556;28;20048;-82
2024/01/22 08:25:28;;;;;;;2.10;0.77;;;;;;;7.52;100.00;99825.34;5045378;28;20072;-82
2024/01/22 08:28:00;;;;;;;2.58;0.98;;;;;;;7.52;100.00;99826.25;5048286;28;20068;-82
2024/01/22 08:30:30;;;;;;;2.70;1.10;;;;;;;7.50;100.00;99824.53;5047483;28;20586;-81
2024/01/22 08:32:57;;;;;;;1.27;0.93;;;;;;;7.50;100.00;99812.34;5048009;28;20049;-80
2024/01/22 08:35:23;;;;;;;0.90;0.88;;;;;;;7.56;100.00;99811.41;5034526;28;21492;-83
2024/01/22 08:37:53;;;;;;;2.40;2.10;;;;;;;7.62;100.00;99807.00;5032811;28;20409;-80
2024/01/22 08:40:22;;;;;;;1.42;0.98;;;;;;;7.65;100.00;99800.91;5018240;28;20053;-82
2024/01/22 08:42:56;;;;;;;1.55;0.85;;;;;;;7.64;100.00;99820.03;5066503;28;20483;-80
2024/01/22 08:45:23;;;;;;;2.38;1.23;;;;;;;7.59;100.00;99821.84;5035198;28;20095;-82
2024/01/22 08:47:51;;;;;;;1.33;1.02;;;;;;;7.62;100.00;99824.41;5030219;28;20057;-82
2024/01/22 08:50:19;;;;;;;1.42;1.13;;;;;;;7.60;100.00;99819.19;5032859;28;20045;-82
2024/01/22 08:52:47;;;;;;;0.82;0.82;;;;;;;7.58;100.00;99818.34;5015832;28;20053;-80
2024/01/22 08:55:14;;;;;;;2.47;0.60;;;;;;;7.65;100.00;99826.09;5020401;28;20144;-81
2024/01/22 08:57:45;;;;;;;1.67;0.80;;;;;;;7.73;100.00;99817.34;5033697;28;20059;-81
2024/01/22 09:00:14;;;;;;;0.82;0.80;;;;;;;7.93;100.00;99822.31;5054112;28;20075;-81
2024/01/22 09:02:42;;;;;;;5.30;1.17;;;;;;;7.98;100.00;99829.22;5048201;28;20045;-82
2024/01/22 09:05:11;;;;;;;1.00;0.90;;;;;;;7.99;100.00;99837.03;5034097;28;20038;-81
2024/01/22 09:07:38;;;;;;;1.98;0.63;;;;;;;7.92;100.00;99828.41;5051585;28;20040;-80
2024/01/22 09:10:07;;;;;;;0.40;0.40;;;;;;;7.98;100.00;99822.28;5047276;28;20057;-82
2024/01/22 09:12:38;;;;;;;0.60;0.60;;;;;;;7.95;100.00;99825.78;5035855;28;20051;-82
2024/01/22 09:15:08;;;;;;;0.40;0.35;;;;;;;7.90;100.00;99832.78;5049418;28;20063;-81
2024/01/22 09:17:36;;;;;;;1.95;0.70;;;;;;;7.97;100.00;99822.28;5047792;28;20037;-82
2024/01/22 09:20:02;;;;;;;1.63;0.93;;;;;;;8.03;100.00;99832.63;5035134;28;20049;-84
2024/01/22 09:22:29;;;;;;;0.65;0.45;;;;;;;7.99;100.00;99816.19;5063331;28;20059;-83
2024/01/22 09:24:59;;;;;;;0.85;0.40;;;;;;;7.95;100.00;99811.88;5046964;28;20068;-83
2024/01/22 09:27:26;;;;;;;2.03;0.60;;;;;;;8.02;100.00;99815.28;5050769;28;20047;-83
2024/01/22 09:29:53;;;;;;;0.63;0.40;;;;;;;8.03;100.00;99804.84;5050064;28;20094;-83
2024/01/22 09:32:21;;;;;;;2.95;1.02;;;;;;;8.03;100.00;99797.03;5031736;28;20060;-82
2024/01/22 09:34:48;;;;;;;1.92;0.70;;;;;;;8.15;100.00;99802.94;5045953;28;20049;-83
2024/01/22 09:37:15;;;;;;;1.83;0.75;;;;;;;8.13;100.00;99797.75;5029682;28;20029;-82
2024/01/22 09:39:42;;;;;;;1.42;0.57;;;;;;;8.21;100.00;99789.84;5033758;28;20154;-84
2024/01/22 09:42:14;;;;;;;0.50;0.50;;;;;;;8.31;100.00;99795.81;5046646;28;20044;-82
2024/01/22 09:44:42;;;;;;;1.65;0.40;;;;;;;8.42;100.00;99799.09;5024617;28;20492;-82
2024/01/22 09:47:10;;;;;;;0.73;0.43;;;;;;;8.49;100.00;99789.50;5043358;28;20037;-82
2024/01/22 09:49:37;;;;;;;1.05;0.38;;;;;;;8.53;100.00;99785.97;5030337;28;20801;-81
2024/01/22 09:52:07;;;;;;;1.48;0.88;;;;;;;8.63;100.00;99771.91;5009809;28;20053;-81
2024/01/22 09:54:40;;;;;;;0.32;0.32;;;;;;;8.99;100.00;99785.22;5048787;28;20072;-83
2024/01/22 09:57:18;;;;;;;1.80;0.30;;;;;;;9.24;100.00;99779.59;5064588;28;20045;-83
2024/01/22 09:59:49;;;;;;;0.30;0.30;;;;;;;9.50;100.00;99770.44;5018959;28;20084;-82
2024/01/22 10:02:17;;;;;;;2.72;0.80;;;;;;;9.79;100.00;99755.94;5013517;28;20052;-81
2024/01/22 10:04:45;;;;;;;1.23;0.50;;;;;;;9.99;100.00;99772.06;5037992;28;20045;-82
2024/01/22 10:07:16;;;;;;;0.73;0.40;;;;;;;10.08;100.00;99757.97;5013790;28;20565;-81
2024/01/22 10:09:45;;;;;;;0.65;0.63;;;;;;;10.13;100.00;99771.81;5030258;28;20057;-81
2024/01/22 10:12:11;;;;;;;1.70;0.30;;;;;;;10.11;100.00;99755.28;5044684;28;20065;-82
2024/01/22 10:14:40;;;;;;;0.10;0.10;;;;;;;10.16;100.00;99758.66;5046939;28;20135;-81
2024/01/22 10:17:20;;;;;;;0.32;0.32;;;;;;;10.18;100.00;99751.63;5022350;28;20037;-80
2024/01/22 10:19:49;;;;;;;1.50;0.50;;;;;;;10.19;100.00;99749.88;5026298;28;20572;-81
2024/01/22 10:22:24;;;;;;;0.90;0.40;;;;;;;10.40;100.00;99746.81;5037384;28;20157;-82
2024/01/22 10:25:01;;;;;;;0.43;0.40;;;;;;;10.49;100.00;99750.97;5021307;28;20045;-81
2024/01/22 10:27:28;;;;;;;2.92;0.30;;;;;;;10.65;100.00;99742.75;5054816;28;20555;-81
2024/01/22 10:30:13;;;;;;;2.50;0.20;;;;;;;10.76;100.00;99746.81;5027100;28;20041;-80
2024/01/22 10:32:42;;;;;;;1.40;1.10;;;;;;;10.82;100.00;99751.06;5028349;28;20053;-82
2024/01/22 10:35:25;;;;;;;1.65;0.22;;;;;;;10.78;100.00;99733.72;5024220;28;20056;-82
2024/01/22 10:38:12;;;;;;;2.20;0.68;;;;;;;10.80;100.00;99736.31;5024726;28;20469;-81
2024/01/22 10:40:40;;;;;;;1.73;0.30;;;;;;;10.86;100.00;99725.66;5057573;28;20132;-80
2024/01/22 10:43:23;;;;;;;3.63;0.77;;;;;;;10.89;100.00;99726.44;5057797;28;20049;-82
2024/01/22 10:45:52;;;;;;;2.92;0.60;;;;;;;10.89;100.00;99733.44;5009759;28;20049;-80
2024/01/22 10:48:22;;;;;;;4.03;0.70;;;;;;;10.99;100.00;99745.41;5023747;28;20046;-83
2024/01/22 10:50:52;;;;;;;1.70;0.43;;;;;;;10.96;100.00;99731.53;5029706;28;20049;-81
2024/01/22 10:53:21;;;;;;;2.92;0.40;;;;;;;10.88;100.00;99734.34;5052615;28;20045;-80
2024/01/22 10:55:59;;;;;;;1.23;0.35;;;;;;;10.86;100.00;99738.75;5037511;28;20073;-81
2024/01/22 10:58:38;;;;;;;4.03;1.65;;;;;;;10.80;100.00;99717.97;5054529;28;20100;-82
2024/01/22 11:01:23;;;;;;;1.13;0.43;;;;;;;10.78;100.00;99720.63;5008602;28;20058;-82
2024/01/22 11:03:52;;;;;;;0.52;0.52;;;;;;;10.63;100.00;99707.94;5021881;28;20801;-81
2024/01/22 11:06:28;;;;;;;0.52;0.40;;;;;;;10.64;100.00;99718.34;5010033;28;20041;-81
2024/01/22 11:08:57;;;;;;;1.60;0.30;;;;;;;10.59;100.00;99694.88;5010147;28;20128;-80
2024/01/22 11:11:28;;;;;;;5.18;0.85;;;;;;;10.69;100.00;99719.09;5023927;28;20557;-80
2024/01/22 11:13:58;;;;;;;2.78;0.30;;;;;;;10.63;100.00;99694.84;5038233;28;20056;-83
2024/01/22 11:16:25;;;;;;;3.88;0.38;;;;;;;10.67;100.00;99697.31;5020006;28;20049;-80
2024/01/22 11:19:01;;;;;;;1.33;0.60;;;;;;;10.66;100.00;99718.31;5046746;28;20115;-82
2024/01/22 11:21:42;;;;;;;2.80;0.60;;;;;;;10.73;100.00;99701.56;5032167;28;20063;-83
2024/01/22 11:24:16;;;;;;;3.20;0.38;;;;;;;10.71;100.00;99700.72;5029777;28;20051;-80
2024/01/22 11:27:07;;;;;;;1.25;0.50;;;;;;;10.67;100.00;99710.41;5042577;28;20715;-83
2024/01/22 11:29:35;;;;;;;1.52;0.50;;;;;;;10.74;100.00;99711.13;5007514;28;20053;-83
2024/01/22 11:32:27;;;;;;;1.63;0.80;;;;;;;10.73;100.00;99714.66;5050656;28;20057;-81
2024/01/22 11:35:01;;;;;;;1.38;0.75;;;;;;;10.68;100.00;99693.81;5030218;28;20048;-82
2024/01/22 11:37:38;;;;;;;;;;;;;;;10.71;100.00;99703.34;5039390;28;20041;-81